sensor_id;sensor_type;location;lat;lon;timestamp;temperature;humidity
40670;DHT22;26355;45.528;9.234;2023-07-13T00:01:05;24.50;99.90
40670;DHT22;26355;45.528;9.234;2023-07-13T00:03:31;24.50;99.90
40670;DHT22;26355;45.528;9.234;2023-07-13T00:06:00;24.60;99.90
40670;DHT22;26355;45.528;9.234;2023-07-13T00:08:29;24.60;99.90
40670;DHT22;26355;45.528;9.234;2023-07-13T00:10:55;24.50;99.90
40670;DHT22;26355;45.528;9.234;2023-07-13T00:13:21;24.20;99.90
40670;DHT22;26355;45.528;9.234;2023-07-13T00:15:46;24.20;99.90
40670;DHT22;26355;45.528;9.234;2023-07-13T00:18:12;24.00;99.90
40670;DHT22;26355;45.528;9.234;2023-07-13T00:20:37;24.20;99.90
40670;DHT22;26355;45.528;9.234;2023-07-13T00:23:03;24.20;99.90
40670;DHT22;26355;45.528;9.234;2023-07-13T00:25:28;24.10;99.90
40670;DHT22;26355;45.528;9.234;2023-07-13T00:27:55;24.20;99.90
40670;DHT22;26355;45.528;9.234;2023-07-13T00:30:21;24.10;99.90
40670;DHT22;26355;45.528;9.234;2023-07-13T00:32:46;24.10;99.90
40670;DHT22;26355;45.528;9.234;2023-07-13T00:35:14;24.00;99.90
40670;DHT22;26355;45.528;9.234;2023-07-13T00:37:40;23.90;99.90
40670;DHT22;26355;45.528;9.234;2023-07-13T00:40:06;23.90;99.90
40670;DHT22;26355;45.528;9.234;2023-07-13T00:42:32;23.90;99.90
40670;DHT22;26355;45.528;9.234;2023-07-13T00:47:38;23.90;99.90
40670;DHT22;26355;45.528;9.234;2023-07-13T00:50:06;24.00;99.90
40670;DHT22;26355;45.528;9.234;2023-07-13T00:52:36;24.00;99.90
40670;DHT22;26355;45.528;9.234;2023-07-13T00:55:02;24.20;99.90
40670;DHT22;26355;45.528;9.234;2023-07-13T00:57:28;24.20;99.90
40670;DHT22;26355;45.528;9.234;2023-07-13T00:59:57;24.20;99.90
40670;DHT22;26355;45.528;9.234;2023-07-13T01:02:25;24.30;99.90
40670;DHT22;26355;45.528;9.234;2023-07-13T01:04:51;24.40;99.90
40670;DHT22;26355;45.528;9.234;2023-07-13T01:07:18;24.30;99.90
40670;DHT22;26355;45.528;9.234;2023-07-13T01:09:44;24.50;99.90
40670;DHT22;26355;45.528;9.234;2023-07-13T01:12:11;24.50;99.90
40670;DHT22;26355;45.528;9.234;2023-07-13T01:14:36;24.60;99.90
40670;DHT22;26355;45.528;9.234;2023-07-13T01:17:03;24.60;99.90
40670;DHT22;26355;45.528;9.234;2023-07-13T01:19:40;24.60;99.90
40670;DHT22;26355;45.528;9.234;2023-07-13T01:22:13;24.60;99.90
40670;DHT22;26355;45.528;9.234;2023-07-13T01:24:41;24.60;99.90
40670;DHT22;26355;45.528;9.234;2023-07-13T01:27:09;24.60;99.90
40670;DHT22;26355;45.528;9.234;2023-07-13T01:29:37;24.80;99.90
40670;DHT22;26355;45.528;9.234;2023-07-13T01:32:14;24.70;99.90
40670;DHT22;26355;45.528;9.234;2023-07-13T01:34:40;24.60;99.90
40670;DHT22;26355;45.528;9.234;2023-07-13T01:37:10;24.60;99.90
40670;DHT22;26355;45.528;9.234;2023-07-13T01:39:36;24.60;99.90
40670;DHT22;26355;45.528;9.234;2023-07-13T01:42:03;24.60;99.90
40670;DHT22;26355;45.528;9.234;2023-07-13T01:44:28;24.50;99.90
40670;DHT22;26355;45.528;9.234;2023-07-13T01:46:54;24.40;99.90
40670;DHT22;26355;45.528;9.234;2023-07-13T01:49:20;24.40;99.90
40670;DHT22;26355;45.528;9.234;2023-07-13T01:51:45;24.50;99.90
40670;DHT22;26355;45.528;9.234;2023-07-13T01:54:11;24.40;99.90
40670;DHT22;26355;45.528;9.234;2023-07-13T01:56:36;24.40;99.90
40670;DHT22;26355;45.528;9.234;2023-07-13T01:59:02;24.50;99.90
40670;DHT22;26355;45.528;9.234;2023-07-13T02:01:28;24.30;99.90
40670;DHT22;26355;45.528;9.234;2023-07-13T02:03:53;24.30;99.90
40670;DHT22;26355;45.528;9.234;2023-07-13T02:06:19;24.20;99.90
40670;DHT22;26355;45.528;9.234;2023-07-13T02:08:44;24.20;99.90
40670;DHT22;26355;45.528;9.234;2023-07-13T02:11:10;24.00;99.90
40670;DHT22;26355;45.528;9.234;2023-07-13T02:13:36;24.10;99.90
40670;DHT22;26355;45.528;9.234;2023-07-13T02:16:02;24.00;99.90
40670;DHT22;26355;45.528;9.234;2023-07-13T02:18:27;24.00;99.90
40670;DHT22;26355;45.528;9.234;2023-07-13T02:20:53;24.10;99.90
40670;DHT22;26355;45.528;9.234;2023-07-13T02:23:18;24.20;99.90
40670;DHT22;26355;45.528;9.234;2023-07-13T02:25:44;24.20;99.90
40670;DHT22;26355;45.528;9.234;2023-07-13T02:28:10;24.20;99.90
40670;DHT22;26355;45.528;9.234;2023-07-13T02:30:36;24.30;99.90
40670;DHT22;26355;45.528;9.234;2023-07-13T02:33:01;24.20;99.90
40670;DHT22;26355;45.528;9.234;2023-07-13T02:35:27;24.30;99.90
40670;DHT22;26355;45.528;9.234;2023-07-13T02:37:53;24.40;99.90
40670;DHT22;26355;45.528;9.234;2023-07-13T02:40:19;24.30;99.90
40670;DHT22;26355;45.528;9.234;2023-07-13T02:42:44;24.50;99.90
40670;DHT22;26355;45.528;9.234;2023-07-13T02:45:10;24.30;99.90
40670;DHT22;26355;45.528;9.234;2023-07-13T02:47:36;24.20;99.90
40670;DHT22;26355;45.528;9.234;2023-07-13T02:50:02;24.30;99.90
40670;DHT22;26355;45.528;9.234;2023-07-13T02:52:28;24.20;99.90
40670;DHT22;26355;45.528;9.234;2023-07-13T02:54:53;24.20;99.90
40670;DHT22;26355;45.528;9.234;2023-07-13T02:57:19;24.20;99.90
40670;DHT22;26355;45.528;9.234;2023-07-13T02:59:44;24.20;99.90
40670;DHT22;26355;45.528;9.234;2023-07-13T03:02:10;24.30;99.90
40670;DHT22;26355;45.528;9.234;2023-07-13T03:04:36;24.30;99.90
40670;DHT22;26355;45.528;9.234;2023-07-13T03:07:03;24.20;99.90
40670;DHT22;26355;45.528;9.234;2023-07-13T03:09:29;24.20;99.90
40670;DHT22;26355;45.528;9.234;2023-07-13T03:11:55;24.00;99.90
40670;DHT22;26355;45.528;9.234;2023-07-13T03:14:22;24.10;99.90
40670;DHT22;26355;45.528;9.234;2023-07-13T03:16:47;24.10;99.90
40670;DHT22;26355;45.528;9.234;2023-07-13T03:19:13;24.10;99.90
40670;DHT22;26355;45.528;9.234;2023-07-13T03:21:38;24.20;99.90
40670;DHT22;26355;45.528;9.234;2023-07-13T03:24:05;24.20;99.90
40670;DHT22;26355;45.528;9.234;2023-07-13T03:26:30;24.30;99.90
40670;DHT22;26355;45.528;9.234;2023-07-13T03:28:56;24.30;99.90
40670;DHT22;26355;45.528;9.234;2023-07-13T03:31:27;24.40;99.90
40670;DHT22;26355;45.528;9.234;2023-07-13T03:33:54;24.40;99.90
40670;DHT22;26355;45.528;9.234;2023-07-13T03:36:23;24.40;99.90
40670;DHT22;26355;45.528;9.234;2023-07-13T03:38:58;24.50;99.90
40670;DHT22;26355;45.528;9.234;2023-07-13T03:41:24;24.50;99.90
40670;DHT22;26355;45.528;9.234;2023-07-13T03:43:50;24.50;99.90
40670;DHT22;26355;45.528;9.234;2023-07-13T03:46:16;24.60;99.90
40670;DHT22;26355;45.528;9.234;2023-07-13T03:48:44;24.60;99.90
40670;DHT22;26355;45.528;9.234;2023-07-13T03:51:11;24.80;99.90
40670;DHT22;26355;45.528;9.234;2023-07-13T03:53:39;24.70;99.90
40670;DHT22;26355;45.528;9.234;2023-07-13T03:56:06;24.70;99.90
40670;DHT22;26355;45.528;9.234;2023-07-13T03:58:35;24.70;99.90
40670;DHT22;26355;45.528;9.234;2023-07-13T04:01:02;24.80;99.90
40670;DHT22;26355;45.528;9.234;2023-07-13T04:03:29;24.70;99.90
40670;DHT22;26355;45.528;9.234;2023-07-13T04:05:57;24.80;99.90
40670;DHT22;26355;45.528;9.234;2023-07-13T04:08:28;24.70;99.90
40670;DHT22;26355;45.528;9.234;2023-07-13T04:10:54;24.80;99.90
40670;DHT22;26355;45.528;9.234;2023-07-13T04:13:20;24.70;99.90
40670;DHT22;26355;45.528;9.234;2023-07-13T04:15:45;24.60;99.90
40670;DHT22;26355;45.528;9.234;2023-07-13T04:18:11;24.60;99.90
40670;DHT22;26355;45.528;9.234;2023-07-13T04:20:36;24.60;99.90
40670;DHT22;26355;45.528;9.234;2023-07-13T04:23:02;24.50;99.90
40670;DHT22;26355;45.528;9.234;2023-07-13T04:25:28;24.60;99.90
40670;DHT22;26355;45.528;9.234;2023-07-13T04:27:53;24.50;99.90
40670;DHT22;26355;45.528;9.234;2023-07-13T04:30:19;24.60;99.90
40670;DHT22;26355;45.528;9.234;2023-07-13T04:32:45;24.70;99.90
40670;DHT22;26355;45.528;9.234;2023-07-13T04:35:11;24.60;99.90
40670;DHT22;26355;45.528;9.234;2023-07-13T04:37:36;24.70;99.90
40670;DHT22;26355;45.528;9.234;2023-07-13T04:40:02;24.70;99.90
40670;DHT22;26355;45.528;9.234;2023-07-13T04:42:29;24.70;99.90
40670;DHT22;26355;45.528;9.234;2023-07-13T04:44:55;24.80;99.90
40670;DHT22;26355;45.528;9.234;2023-07-13T04:47:20;24.70;99.90
40670;DHT22;26355;45.528;9.234;2023-07-13T04:49:46;24.80;99.90
40670;DHT22;26355;45.528;9.234;2023-07-13T04:52:12;24.70;99.90
40670;DHT22;26355;45.528;9.234;2023-07-13T04:54:38;24.70;99.90
40670;DHT22;26355;45.528;9.234;2023-07-13T04:57:04;24.80;99.90
40670;DHT22;26355;45.528;9.234;2023-07-13T04:59:32;24.90;99.90
40670;DHT22;26355;45.528;9.234;2023-07-13T05:01:58;25.00;99.90
40670;DHT22;26355;45.528;9.234;2023-07-13T05:04:23;24.80;99.90
40670;DHT22;26355;45.528;9.234;2023-07-13T05:06:49;25.00;99.90
40670;DHT22;26355;45.528;9.234;2023-07-13T05:09:15;24.90;99.90
40670;DHT22;26355;45.528;9.234;2023-07-13T05:11:40;24.90;99.90
40670;DHT22;26355;45.528;9.234;2023-07-13T05:14:06;25.00;99.90
40670;DHT22;26355;45.528;9.234;2023-07-13T05:16:31;25.00;99.90
40670;DHT22;26355;45.528;9.234;2023-07-13T05:18:57;25.00;99.90
40670;DHT22;26355;45.528;9.234;2023-07-13T05:21:23;24.90;99.90
40670;DHT22;26355;45.528;9.234;2023-07-13T05:23:50;25.00;99.90
40670;DHT22;26355;45.528;9.234;2023-07-13T05:26:16;25.20;99.90
40670;DHT22;26355;45.528;9.234;2023-07-13T05:28:41;25.20;99.90
40670;DHT22;26355;45.528;9.234;2023-07-13T05:31:09;25.20;99.90
40670;DHT22;26355;45.528;9.234;2023-07-13T05:33:35;25.40;99.90
40670;DHT22;26355;45.528;9.234;2023-07-13T05:36:01;25.40;99.90
40670;DHT22;26355;45.528;9.234;2023-07-13T05:38:27;25.40;99.90
40670;DHT22;26355;45.528;9.234;2023-07-13T05:40:54;25.40;99.90
40670;DHT22;26355;45.528;9.234;2023-07-13T05:43:21;25.40;99.90
40670;DHT22;26355;45.528;9.234;2023-07-13T05:45:47;25.50;99.90
40670;DHT22;26355;45.528;9.234;2023-07-13T05:48:13;25.60;99.90
40670;DHT22;26355;45.528;9.234;2023-07-13T05:50:38;25.60;99.90
40670;DHT22;26355;45.528;9.234;2023-07-13T05:53:04;25.60;99.90
40670;DHT22;26355;45.528;9.234;2023-07-13T05:55:30;25.60;99.90
40670;DHT22;26355;45.528;9.234;2023-07-13T05:57:56;25.60;99.90
40670;DHT22;26355;45.528;9.234;2023-07-13T06:00:23;25.60;99.90
40670;DHT22;26355;45.528;9.234;2023-07-13T06:02:49;25.70;99.90
40670;DHT22;26355;45.528;9.234;2023-07-13T06:05:15;25.80;99.90
40670;DHT22;26355;45.528;9.234;2023-07-13T06:07:41;25.70;99.90
40670;DHT22;26355;45.528;9.234;2023-07-13T06:10:07;25.70;99.90
40670;DHT22;26355;45.528;9.234;2023-07-13T06:12:32;25.70;99.90
40670;DHT22;26355;45.528;9.234;2023-07-13T06:14:58;25.80;99.90
40670;DHT22;26355;45.528;9.234;2023-07-13T06:17:23;25.80;99.90
40670;DHT22;26355;45.528;9.234;2023-07-13T06:19:49;26.00;99.90
40670;DHT22;26355;45.528;9.234;2023-07-13T06:22:14;26.20;99.90
40670;DHT22;26355;45.528;9.234;2023-07-13T06:24:40;26.30;99.90
40670;DHT22;26355;45.528;9.234;2023-07-13T06:27:06;26.60;99.90
40670;DHT22;26355;45.528;9.234;2023-07-13T06:29:31;26.80;99.90
40670;DHT22;26355;45.528;9.234;2023-07-13T06:31:57;27.00;99.90
40670;DHT22;26355;45.528;9.234;2023-07-13T06:34:23;27.20;99.90
40670;DHT22;26355;45.528;9.234;2023-07-13T06:36:48;27.10;99.90
40670;DHT22;26355;45.528;9.234;2023-07-13T06:39:14;27.20;99.90
40670;DHT22;26355;45.528;9.234;2023-07-13T06:41:39;27.20;99.90
40670;DHT22;26355;45.528;9.234;2023-07-13T06:44:05;27.40;99.90
40670;DHT22;26355;45.528;9.234;2023-07-13T06:46:32;27.50;99.90
40670;DHT22;26355;45.528;9.234;2023-07-13T06:48:57;27.60;99.90
40670;DHT22;26355;45.528;9.234;2023-07-13T06:51:23;27.60;99.90
40670;DHT22;26355;45.528;9.234;2023-07-13T06:53:49;27.60;99.90
40670;DHT22;26355;45.528;9.234;2023-07-13T06:56:15;27.50;99.90
40670;DHT22;26355;45.528;9.234;2023-07-13T06:58:41;27.40;99.90
40670;DHT22;26355;45.528;9.234;2023-07-13T07:01:06;27.30;99.90
40670;DHT22;26355;45.528;9.234;2023-07-13T07:03:32;27.20;99.90
40670;DHT22;26355;45.528;9.234;2023-07-13T07:06:17;27.10;99.90
40670;DHT22;26355;45.528;9.234;2023-07-13T07:08:43;27.00;99.90
40670;DHT22;26355;45.528;9.234;2023-07-13T07:11:13;27.00;99.90
40670;DHT22;26355;45.528;9.234;2023-07-13T07:13:38;27.00;99.90
40670;DHT22;26355;45.528;9.234;2023-07-13T07:16:04;27.00;99.90
40670;DHT22;26355;45.528;9.234;2023-07-13T07:18:30;27.00;99.90
40670;DHT22;26355;45.528;9.234;2023-07-13T07:20:55;26.90;99.90
40670;DHT22;26355;45.528;9.234;2023-07-13T07:23:21;26.90;99.90
40670;DHT22;26355;45.528;9.234;2023-07-13T07:25:47;26.90;99.90
40670;DHT22;26355;45.528;9.234;2023-07-13T07:28:15;26.80;99.90
40670;DHT22;26355;45.528;9.234;2023-07-13T07:30:43;26.90;99.90
40670;DHT22;26355;45.528;9.234;2023-07-13T07:33:09;27.00;99.90
40670;DHT22;26355;45.528;9.234;2023-07-13T07:35:34;26.90;99.90
40670;DHT22;26355;45.528;9.234;2023-07-13T07:38:00;27.00;99.90
40670;DHT22;26355;45.528;9.234;2023-07-13T07:40:26;26.90;99.90
40670;DHT22;26355;45.528;9.234;2023-07-13T07:42:52;26.80;99.90
40670;DHT22;26355;45.528;9.234;2023-07-13T07:45:19;26.80;99.90
40670;DHT22;26355;45.528;9.234;2023-07-13T07:47:44;26.70;99.90
40670;DHT22;26355;45.528;9.234;2023-07-13T07:50:10;26.60;99.90
40670;DHT22;26355;45.528;9.234;2023-07-13T07:52:36;26.70;99.90
40670;DHT22;26355;45.528;9.234;2023-07-13T07:55:06;26.70;99.90
40670;DHT22;26355;45.528;9.234;2023-07-13T07:57:32;26.70;99.90
40670;DHT22;26355;45.528;9.234;2023-07-13T07:59:58;26.80;99.90
40670;DHT22;26355;45.528;9.234;2023-07-13T08:02:25;26.80;99.90
40670;DHT22;26355;45.528;9.234;2023-07-13T08:04:50;26.90;99.90
40670;DHT22;26355;45.528;9.234;2023-07-13T08:07:16;26.80;99.90
40670;DHT22;26355;45.528;9.234;2023-07-13T08:09:42;26.90;99.90
40670;DHT22;26355;45.528;9.234;2023-07-13T08:12:07;26.90;99.90
40670;DHT22;26355;45.528;9.234;2023-07-13T08:14:33;27.00;99.90
40670;DHT22;26355;45.528;9.234;2023-07-13T08:16:59;27.10;99.90
40670;DHT22;26355;45.528;9.234;2023-07-13T08:19:24;27.10;99.90
40670;DHT22;26355;45.528;9.234;2023-07-13T08:21:50;27.10;99.90
40670;DHT22;26355;45.528;9.234;2023-07-13T08:24:15;27.20;99.90
40670;DHT22;26355;45.528;9.234;2023-07-13T08:26:44;27.30;99.90
40670;DHT22;26355;45.528;9.234;2023-07-13T08:29:09;27.30;99.90
40670;DHT22;26355;45.528;9.234;2023-07-13T08:32:01;27.30;99.90
40670;DHT22;26355;45.528;9.234;2023-07-13T08:34:27;27.40;99.90
40670;DHT22;26355;45.528;9.234;2023-07-13T08:36:53;27.40;99.90
40670;DHT22;26355;45.528;9.234;2023-07-13T08:39:18;27.60;99.90
40670;DHT22;26355;45.528;9.234;2023-07-13T08:41:47;27.60;99.90
40670;DHT22;26355;45.528;9.234;2023-07-13T08:46:58;27.60;99.90
40670;DHT22;26355;45.528;9.234;2023-07-13T08:49:25;27.60;99.90
40670;DHT22;26355;45.528;9.234;2023-07-13T08:52:01;27.80;99.90
40670;DHT22;26355;45.528;9.234;2023-07-13T08:54:38;27.90;99.90
40670;DHT22;26355;45.528;9.234;2023-07-13T08:57:14;28.10;99.90
40670;DHT22;26355;45.528;9.234;2023-07-13T08:59:40;28.20;99.90
40670;DHT22;26355;45.528;9.234;2023-07-13T09:04:55;28.10;99.90
40670;DHT22;26355;45.528;9.234;2023-07-13T09:10:20;28.00;99.90
40670;DHT22;26355;45.528;9.234;2023-07-13T09:15:47;27.60;99.90
40670;DHT22;26355;45.528;9.234;2023-07-13T09:18:27;27.60;99.90
40670;DHT22;26355;45.528;9.234;2023-07-13T09:21:24;27.60;99.90
40670;DHT22;26355;45.528;9.234;2023-07-13T09:23:59;27.40;99.90
40670;DHT22;26355;45.528;9.234;2023-07-13T09:26:28;27.40;99.90
40670;DHT22;26355;45.528;9.234;2023-07-13T09:29:06;27.50;99.90
40670;DHT22;26355;45.528;9.234;2023-07-13T09:31:43;27.30;99.90
40670;DHT22;26355;45.528;9.234;2023-07-13T09:34:11;27.50;99.90
40670;DHT22;26355;45.528;9.234;2023-07-13T09:36:37;27.60;99.90
40670;DHT22;26355;45.528;9.234;2023-07-13T09:44:07;27.90;99.90
40670;DHT22;26355;45.528;9.234;2023-07-13T09:46:37;28.00;99.90
40670;DHT22;26355;45.528;9.234;2023-07-13T09:49:03;28.00;99.90
40670;DHT22;26355;45.528;9.234;2023-07-13T09:51:29;28.10;99.90
40670;DHT22;26355;45.528;9.234;2023-07-13T09:53:55;28.20;99.90
40670;DHT22;26355;45.528;9.234;2023-07-13T09:56:27;28.20;99.90
40670;DHT22;26355;45.528;9.234;2023-07-13T09:58:53;28.10;99.90
40670;DHT22;26355;45.528;9.234;2023-07-13T10:01:34;28.00;99.90
40670;DHT22;26355;45.528;9.234;2023-07-13T10:04:00;28.10;99.90
40670;DHT22;26355;45.528;9.234;2023-07-13T10:06:26;28.20;99.90
40670;DHT22;26355;45.528;9.234;2023-07-13T10:08:52;28.20;99.90
40670;DHT22;26355;45.528;9.234;2023-07-13T10:11:24;28.20;99.90
40670;DHT22;26355;45.528;9.234;2023-07-13T10:13:53;28.30;99.90
40670;DHT22;26355;45.528;9.234;2023-07-13T10:16:21;28.40;99.90
40670;DHT22;26355;45.528;9.234;2023-07-13T10:18:50;28.40;99.90
40670;DHT22;26355;45.528;9.234;2023-07-13T10:21:19;28.40;99.90
40670;DHT22;26355;45.528;9.234;2023-07-13T10:23:52;28.70;99.90
40670;DHT22;26355;45.528;9.234;2023-07-13T10:26:26;28.80;99.90
40670;DHT22;26355;45.528;9.234;2023-07-13T10:28:57;29.00;99.90
40670;DHT22;26355;45.528;9.234;2023-07-13T10:31:24;29.00;99.90
40670;DHT22;26355;45.528;9.234;2023-07-13T10:33:50;29.00;99.90
40670;DHT22;26355;45.528;9.234;2023-07-13T10:36:35;29.10;99.90
40670;DHT22;26355;45.528;9.234;2023-07-13T10:39:05;29.20;99.90
40670;DHT22;26355;45.528;9.234;2023-07-13T10:41:35;29.30;99.90
40670;DHT22;26355;45.528;9.234;2023-07-13T10:44:03;29.20;99.90
40670;DHT22;26355;45.528;9.234;2023-07-13T10:46:30;29.20;99.90
40670;DHT22;26355;45.528;9.234;2023-07-13T10:49:02;29.20;99.90
40670;DHT22;26355;45.528;9.234;2023-07-13T10:51:30;29.30;99.90
40670;DHT22;26355;45.528;9.234;2023-07-13T10:54:14;29.40;99.90
40670;DHT22;26355;45.528;9.234;2023-07-13T10:56:44;29.20;99.90
40670;DHT22;26355;45.528;9.234;2023-07-13T10:59:13;29.20;99.90
40670;DHT22;26355;45.528;9.234;2023-07-13T11:01:58;29.30;99.90
40670;DHT22;26355;45.528;9.234;2023-07-13T11:04:27;29.40;99.90
40670;DHT22;26355;45.528;9.234;2023-07-13T11:06:59;29.40;99.90
40670;DHT22;26355;45.528;9.234;2023-07-13T11:12:10;29.60;99.90
40670;DHT22;26355;45.528;9.234;2023-07-13T11:17:47;29.80;99.90
40670;DHT22;26355;45.528;9.234;2023-07-13T11:22:47;30.00;99.90
40670;DHT22;26355;45.528;9.234;2023-07-13T11:25:30;29.90;99.90
40670;DHT22;26355;45.528;9.234;2023-07-13T11:30:47;30.10;99.90
40670;DHT22;26355;45.528;9.234;2023-07-13T11:33:25;30.00;99.90
40670;DHT22;26355;45.528;9.234;2023-07-13T11:36:00;30.10;99.90
40670;DHT22;26355;45.528;9.234;2023-07-13T11:38:37;30.10;99.90
40670;DHT22;26355;45.528;9.234;2023-07-13T11:43:50;30.10;99.90
40670;DHT22;26355;45.528;9.234;2023-07-13T11:46:21;30.00;99.90
40670;DHT22;26355;45.528;9.234;2023-07-13T11:48:48;29.90;99.90
40670;DHT22;26355;45.528;9.234;2023-07-13T11:51:23;29.90;99.90
40670;DHT22;26355;45.528;9.234;2023-07-13T11:53:52;30.00;99.90
40670;DHT22;26355;45.528;9.234;2023-07-13T11:56:19;30.10;99.90
40670;DHT22;26355;45.528;9.234;2023-07-13T11:58:49;30.10;99.90
40670;DHT22;26355;45.528;9.234;2023-07-13T12:01:20;30.20;99.90
40670;DHT22;26355;45.528;9.234;2023-07-13T12:03:46;30.30;99.90
40670;DHT22;26355;45.528;9.234;2023-07-13T12:06:30;30.40;99.90
40670;DHT22;26355;45.528;9.234;2023-07-13T12:09:00;30.50;99.90
40670;DHT22;26355;45.528;9.234;2023-07-13T12:11:26;30.60;99.90
40670;DHT22;26355;45.528;9.234;2023-07-13T12:13:52;30.60;99.90
40670;DHT22;26355;45.528;9.234;2023-07-13T12:16:31;30.60;99.90
40670;DHT22;26355;45.528;9.234;2023-07-13T12:19:01;30.60;99.90
40670;DHT22;26355;45.528;9.234;2023-07-13T12:21:33;30.60;99.90
40670;DHT22;26355;45.528;9.234;2023-07-13T12:24:00;30.70;99.90
40670;DHT22;26355;45.528;9.234;2023-07-13T12:26:28;30.70;99.90
40670;DHT22;26355;45.528;9.234;2023-07-13T12:28:55;30.60;99.90
40670;DHT22;26355;45.528;9.234;2023-07-13T12:31:40;30.60;99.90
40670;DHT22;26355;45.528;9.234;2023-07-13T12:34:21;30.60;99.90
40670;DHT22;26355;45.528;9.234;2023-07-13T12:41:47;30.70;99.90
40670;DHT22;26355;45.528;9.234;2023-07-13T12:44:18;30.70;99.90
40670;DHT22;26355;45.528;9.234;2023-07-13T12:47:02;30.70;99.90
40670;DHT22;26355;45.528;9.234;2023-07-13T12:49:31;30.70;99.90
40670;DHT22;26355;45.528;9.234;2023-07-13T12:52:01;30.70;99.90
40670;DHT22;26355;45.528;9.234;2023-07-13T12:54:28;30.70;99.90
40670;DHT22;26355;45.528;9.234;2023-07-13T12:56:55;30.80;99.90
40670;DHT22;26355;45.528;9.234;2023-07-13T12:59:25;30.70;99.90
40670;DHT22;26355;45.528;9.234;2023-07-13T13:01:53;30.70;99.90
40670;DHT22;26355;45.528;9.234;2023-07-13T13:04:19;30.70;99.90
40670;DHT22;26355;45.528;9.234;2023-07-13T13:06:48;30.80;99.90
40670;DHT22;26355;45.528;9.234;2023-07-13T13:09:15;30.90;99.90
40670;DHT22;26355;45.528;9.234;2023-07-13T13:11:42;30.90;99.90
40670;DHT22;26355;45.528;9.234;2023-07-13T13:14:08;31.00;99.90
40670;DHT22;26355;45.528;9.234;2023-07-13T13:16:43;31.00;99.90
40670;DHT22;26355;45.528;9.234;2023-07-13T13:21:40;30.90;99.90
40670;DHT22;26355;45.528;9.234;2023-07-13T13:24:14;31.00;99.90
40670;DHT22;26355;45.528;9.234;2023-07-13T13:26:40;31.10;99.90
40670;DHT22;26355;45.528;9.234;2023-07-13T13:29:15;31.20;99.90
40670;DHT22;26355;45.528;9.234;2023-07-13T13:31:42;31.30;99.90
40670;DHT22;26355;45.528;9.234;2023-07-13T13:34:13;31.40;99.90
40670;DHT22;26355;45.528;9.234;2023-07-13T13:36:40;31.40;99.90
40670;DHT22;26355;45.528;9.234;2023-07-13T13:39:24;31.50;99.90
40670;DHT22;26355;45.528;9.234;2023-07-13T13:41:51;31.50;99.90
40670;DHT22;26355;45.528;9.234;2023-07-13T13:44:18;31.60;99.90
40670;DHT22;26355;45.528;9.234;2023-07-13T13:46:45;31.60;99.90
40670;DHT22;26355;45.528;9.234;2023-07-13T13:49:13;31.60;99.90
40670;DHT22;26355;45.528;9.234;2023-07-13T13:51:39;31.50;99.90
40670;DHT22;26355;45.528;9.234;2023-07-13T13:54:08;31.60;99.90
40670;DHT22;26355;45.528;9.234;2023-07-13T13:56:34;31.60;99.90
40670;DHT22;26355;45.528;9.234;2023-07-13T13:59:00;31.70;99.90
40670;DHT22;26355;45.528;9.234;2023-07-13T14:01:26;31.70;99.90
40670;DHT22;26355;45.528;9.234;2023-07-13T14:03:54;31.70;99.90
40670;DHT22;26355;45.528;9.234;2023-07-13T14:06:20;31.70;99.90
40670;DHT22;26355;45.528;9.234;2023-07-13T14:08:46;31.80;99.90
40670;DHT22;26355;45.528;9.234;2023-07-13T14:11:19;31.80;99.90
40670;DHT22;26355;45.528;9.234;2023-07-13T14:13:59;31.80;99.90
40670;DHT22;26355;45.528;9.234;2023-07-13T14:16:30;31.60;99.90
40670;DHT22;26355;45.528;9.234;2023-07-13T14:18:57;31.50;99.90
40670;DHT22;26355;45.528;9.234;2023-07-13T14:21:26;31.50;99.90
40670;DHT22;26355;45.528;9.234;2023-07-13T14:23:52;31.50;99.90
40670;DHT22;26355;45.528;9.234;2023-07-13T14:26:22;31.50;99.90
40670;DHT22;26355;45.528;9.234;2023-07-13T14:28:51;31.60;99.90
40670;DHT22;26355;45.528;9.234;2023-07-13T14:31:17;31.60;99.90
40670;DHT22;26355;45.528;9.234;2023-07-13T14:33:44;31.50;99.90
40670;DHT22;26355;45.528;9.234;2023-07-13T14:36:32;31.40;99.90
40670;DHT22;26355;45.528;9.234;2023-07-13T14:39:04;31.30;99.90
40670;DHT22;26355;45.528;9.234;2023-07-13T14:41:31;31.30;99.90
40670;DHT22;26355;45.528;9.234;2023-07-13T14:43:57;31.20;99.90
40670;DHT22;26355;45.528;9.234;2023-07-13T14:46:30;31.20;99.90
40670;DHT22;26355;45.528;9.234;2023-07-13T14:49:03;31.20;99.90
40670;DHT22;26355;45.528;9.234;2023-07-13T14:51:31;31.30;99.90
40670;DHT22;26355;45.528;9.234;2023-07-13T14:54:00;31.20;99.90
40670;DHT22;26355;45.528;9.234;2023-07-13T14:56:26;31.20;99.90
40670;DHT22;26355;45.528;9.234;2023-07-13T14:58:51;31.20;99.90
40670;DHT22;26355;45.528;9.234;2023-07-13T15:01:18;31.30;99.90
40670;DHT22;26355;45.528;9.234;2023-07-13T15:03:47;31.40;99.90
40670;DHT22;26355;45.528;9.234;2023-07-13T15:06:14;31.50;99.90
40670;DHT22;26355;45.528;9.234;2023-07-13T15:08:40;31.50;99.90
40670;DHT22;26355;45.528;9.234;2023-07-13T15:11:08;31.50;99.90
40670;DHT22;26355;45.528;9.234;2023-07-13T15:13:34;31.50;99.90
40670;DHT22;26355;45.528;9.234;2023-07-13T15:16:01;31.50;99.90
40670;DHT22;26355;45.528;9.234;2023-07-13T15:18:26;31.50;99.90
40670;DHT22;26355;45.528;9.234;2023-07-13T15:20:53;31.60;99.90
40670;DHT22;26355;45.528;9.234;2023-07-13T15:23:22;31.60;99.90
40670;DHT22;26355;45.528;9.234;2023-07-13T15:25:48;31.50;99.90
40670;DHT22;26355;45.528;9.234;2023-07-13T15:28:15;31.50;99.90
40670;DHT22;26355;45.528;9.234;2023-07-13T15:30:45;31.50;99.90
40670;DHT22;26355;45.528;9.234;2023-07-13T15:35:48;31.50;99.90
40670;DHT22;26355;45.528;9.234;2023-07-13T15:38:18;31.50;99.90
40670;DHT22;26355;45.528;9.234;2023-07-13T15:40:45;31.50;99.90
40670;DHT22;26355;45.528;9.234;2023-07-13T15:43:12;31.50;99.90
40670;DHT22;26355;45.528;9.234;2023-07-13T15:45:39;31.50;99.90
40670;DHT22;26355;45.528;9.234;2023-07-13T15:48:22;31.60;99.90
40670;DHT22;26355;45.528;9.234;2023-07-13T15:50:51;31.60;99.90
40670;DHT22;26355;45.528;9.234;2023-07-13T15:53:24;31.60;99.90
40670;DHT22;26355;45.528;9.234;2023-07-13T15:55:50;31.60;99.90
40670;DHT22;26355;45.528;9.234;2023-07-13T15:58:17;31.60;99.90
40670;DHT22;26355;45.528;9.234;2023-07-13T16:00:43;31.50;99.90
40670;DHT22;26355;45.528;9.234;2023-07-13T16:03:10;31.50;99.90
40670;DHT22;26355;45.528;9.234;2023-07-13T16:05:36;31.60;99.90
40670;DHT22;26355;45.528;9.234;2023-07-13T16:08:04;31.60;99.90
40670;DHT22;26355;45.528;9.234;2023-07-13T16:10:36;31.50;99.90
40670;DHT22;26355;45.528;9.234;2023-07-13T16:13:07;31.60;99.90
40670;DHT22;26355;45.528;9.234;2023-07-13T16:15:34;31.60;99.90
40670;DHT22;26355;45.528;9.234;2023-07-13T16:18:00;31.60;99.90